Main page
METAR-TAF:

METAR-TAF

Airports :

Vidsel Air Base

Vidsel, Sweden

latitude: 65-52N, longitude: 020-08E, elevation: 180 m

Current weather observation

The report was made 37 minutes ago, at 16:50 UTC
Wind 10 kt from the Southeast, varying between East/Southeast and South
Temperature 25°C
Humidity 44%
Pressure 1012 hPa
Visibility 10 km or more

METAR: ESPE 231650Z AUTO 14010KT 110V170 9999 NCD 25/12 Q1012

Time: 19:27 (17:27 UTC)


TAF: missing

Weather observations and forecasts of more than 4000 airports (METAR and TAF reports).

The available stations are represented by yellow and red dots on the map.

Hover mouse over dot to see the name of the station.

Then click to see weather observations and forecasts.

To change the map : click on the green buttons with a black cross to zoom in, on the green button with a dash to zoom out, or on the green arrows for adjacent maps.


METAR-TAF: